ウシュアイア空港の過去48時間の天気

ウシュアイア空港 (Ushuaia Aerodrome)

現在時刻: 9/16 00:11 -03 (9/16 03:11 UTC) 以下の時間は現地時間です。

過去48時間のMETAR気象情報
時間 風向 風速(m/s) 視程 気温(℃) 湿度(%) 気圧(hPa) 天気現象
16 00:00 南西 4 8000m 1 80 1001 弱い雪
15 23:00 南西 3 10km以上 1 80 1001 弱い雪
15 22:00 南西 4 10km以上 1 80 1002 周辺でしゅう雨
15 21:00 南西 6 10km以上 1 80 1002 周辺でしゅう雨
15 20:00 南西 8 10km以上 1 80 1003
15 19:00 南西 10 10km以上 2 75 1003
15 18:00 南西 11 10km以上 2 64 1004
15 17:00 南西 11 10km以上 2 81 1004
15 16:00 南西 12 10km以上 3 81 1004 周辺でしゅう雨
15 15:00 南西 13 10km以上 3 81 1004 周辺でしゅう雨
15 14:00 南西 12 10km以上 4 75 1005
15 13:00 南西 10 10km以上 4 75 1005
15 12:00 南西 9 10km以上 4 75 1005
15 11:00 南西 5 10km以上 4 75 1005
15 10:00 8 10km以上 3 93 1004 周辺でしゅう雨
15 09:00 7 10km以上 3 93 1004 周辺でしゅう雨
15 08:00 南東 9 10km以上 4 87 1003 弱い霧雨
15 07:00 南南東 7 10km以上 3 93 1001 弱い霧雨
15 06:00 南南東 5 10km以上 4 87 1000 弱い霧雨
15 05:00 南西 11 10km以上 4 81 997 弱い霧雨
15 04:15 南西 9 10km以上 4 81 996 弱い霧雨
15 04:00 南西 8 10km以上 4 81 996
15 03:00 南西 7 10km以上 4 75 996
15 02:00 南西 9 10km以上 4 87 995
15 01:00 南西 8 10km以上 4 81 994
15 00:00 南西 8 10km以上 3 93 994
14 23:00 静穏 0 10km以上 3 93 993 周辺でしゅう雨
14 22:00 北北西 2 10km以上 3 93 993 周辺でしゅう雨
14 21:00 北北西 3 10km以上 3 93 992 弱い霧雨
14 20:00 西北西 2 10km以上 4 87 991 弱い霧雨
14 19:00 南西 2 10km以上 4 93 991 弱い雨
14 18:00 2 8000m 4 87 990
14 17:00 2 8000m 5 81 989
14 16:00 静穏 0 10km以上 6 70 989 弱い雨
14 15:00 北東 2 10km以上 7 61 988 周辺でしゅう雨
14 14:00 南東 2 10km以上 7 57 988 周辺でしゅう雨
14 13:00 2 10km以上 6 61 988
14 12:00 3 10km以上 5 70 988
14 11:00 2 10km以上 5 65 988
14 10:00 西 3 10km以上 4 70 989 周辺でしゅう雨
14 09:00 2 10km以上 4 75 989 周辺でしゅう雨
14 08:00 3 10km以上 4 87 989 周辺でしゅう雨
14 07:00 静穏 0 10km以上 5 52 991
14 06:00 北西 3 10km以上 5 52 990
14 05:00 北西 6 10km以上 4 56 991
14 04:00 7 10km以上 4 56 992
14 03:00 北西 8 10km以上 4 60 993
14 02:00 北西 4 10km以上 4 60 994
14 01:00 北北東 3 10km以上 4 93 995
SAWH 160300Z 23007KT 8000 -SN OVC020 01/M02 Q1001
SAWH 160200Z 23006KT 9999 -SN OVC020 01/M02 Q1001
SAWH 160100Z 23008KT 9999 VCSH BKN020 OVC050 01/M02 Q1002
SAWH 160000Z 23012KT 9999 VCSH SCT020 BKN038 OVC080 01/M02 Q1002
SAWH 152300Z 23015KT 9999 FEW020 SCT040 OVC080 01/M02 Q1003
SAWH 152200Z 23020KT 9999 FEW020 SCT040 OVC080 02/M02 Q1003
SAWH 152100Z 23021G35KT 9999 BKN040 OVC100 02/M04 Q1004
SAWH 152000Z 23022G35KT 9999 BKN040 OVC100 02/M01 Q1004
SAWH 151900Z 23023G35KT 9999 VCSH BKN040 BKN100 03/M00 Q1004
SAWH 151800Z 23025KT 9999 VCSH BKN040 OVC100 03/M00 Q1004
SAWH 151700Z 23023G33KT 9999 BKN040 BKN100 04/M00 Q1005
SAWH 151600Z 23020G33KT 9999 BKN040 04/00 Q1005
SAWH 151500Z 23018G28KT 9999 BKN045 04/00 Q1005
SAWH 151400Z 23010G20KT 9999 BKN045 04/00 Q1005
SAWH 151300Z 18015G25KT 9999 VCSH BKN030 03/02 Q1004
SAWH 151200Z 18013G33KT 9999 VCSH BKN030 03/02 Q1004 REDZ
SAWH 151100Z 14018KT 9999 -DZ BKN030 04/02 Q1003
SAWH 151000Z 16013KT 9999 -DZ FEW020 SCT035 BKN045 03/02 Q1001
SAWH 150900Z 16010KT 9999 -DZ SCT020 BKN040 OVC060 04/02 Q1000
SAWH 150800Z 23022KT 9999 -DZ BKN040 OVC060 04/01 Q0997
SAWH 150715Z 23018KT 9999 -DZ SCT020 BKN040 OVC060 04/01 Q0996
SAWH 150700Z 23016KT 9999 SCT045 BKN060 04/01 Q0996
SAWH 150600Z 23014KT 9999 FEW035 SCT045 BKN060 04/00 Q0996
SAWH 150500Z 23017KT 9999 FEW030 SCT040 04/02 Q0995
SAWH 150400Z 23015KT 9999 SCT030 SCT040 04/01 Q0994
SAWH 150300Z 23016G26KT 9999 FEW020 SCT035 BKN050 03/02 Q0994
SAWH 150200Z 00000KT 9999 VCSH FEW020 SCT035 BKN050 03/02 Q0993
SAWH 150100Z 34004KT 9999 VCSH FEW020 SCT035 BKN050 03/02 Q0993 REDZ
SAWH 150000Z 34005KT 9999 -DZ FEW015 BKN025 BKN050 03/02 Q0992
SAWH 142300Z 29003KT 9999 -DZ SCT015 BKN020 BKN050 04/02 Q0991
SAWH 142200Z 23003KT 9999 -RA SCT015 BKN020 BKN050 04/03 Q0991
SAWH 142100Z 18003KT 8000 RA BKN017 OVC050 04/02 Q0990
SAWH 142000Z 18004KT 8000 RA BKN020 OVC050 05/02 Q0989
SAWH 141900Z 00000KT 9999 -RA BKN020 OVC050 06/01 Q0989
SAWH 141800Z 05003KT 9999 VCSH BKN025 BKN070 07/M00 Q0988
SAWH 141700Z 14003KT 9999 VCSH BKN035 BKN070 07/M01 Q0988
SAWH 141600Z 18004KT 9999 SCT040 BKN070 06/M01 Q0988
SAWH 141500Z 18005KT 9999 SCT045 BKN050 OVC100 05/00 Q0988
SAWH 141400Z 18003KT 9999 FEW035 SCT045 BKN048 05/M01 Q0988
SAWH 141300Z 27005KT 9999 VCSH FEW035 SCT045 BKN048 04/M01 Q0989
SAWH 141200Z 09004KT 9999 VCSH FEW035 SCT045 BKN048 04/M00 Q0989
SAWH 141100Z 18006KT 9999 VCSH FEW035 SCT045 BKN048 04/02 Q0989
SAWH 141000Z 00000KT 9999 FEW045 BKN048 OVC100 05/M04 Q0991
SAWH 140900Z 32005KT 9999 FEW040 BKN080 05/M04 Q0990
SAWH 140800Z 32011KT 9999 FEW045 BKN080 04/M04 Q0991
SAWH 140700Z 36013KT 9999 FEW045 BKN080 04/M04 Q0992
SAWH 140600Z 32016KT 9999 FEW045 OVC070 04/M03 Q0993
SAWH 140500Z 32007KT 9999 FEW040 OVC070 04/M03 Q0994
SAWH 140400Z 02006KT 9999 FEW040 04/03 Q0995